sensor_id;sensor_type;location;lat;lon;timestamp;pressure;altitude;pressure_sealevel;temperature;humidity
77086;BME280;66014;53.134;18.006;2023-12-20T00:02:24;100182.83;;;6.58;96.34
77086;BME280;66014;53.134;18.006;2023-12-20T00:04:52;100181.14;;;6.60;96.38
77086;BME280;66014;53.134;18.006;2023-12-20T00:07:19;100182.24;;;6.60;96.38
77086;BME280;66014;53.134;18.006;2023-12-20T00:09:45;100184.25;;;6.59;96.25
77086;BME280;66014;53.134;18.006;2023-12-20T00:12:12;100183.54;;;6.60;96.30
77086;BME280;66014;53.134;18.006;2023-12-20T00:14:39;100180.42;;;6.59;96.37
77086;BME280;66014;53.134;18.006;2023-12-20T00:17:08;100183.14;;;6.60;96.43
77086;BME280;66014;53.134;18.006;2023-12-20T00:19:35;100182.20;;;6.60;96.43
77086;BME280;66014;53.134;18.006;2023-12-20T00:22:01;100183.91;;;6.61;96.42
77086;BME280;66014;53.134;18.006;2023-12-20T00:24:28;100182.27;;;6.61;96.43
77086;BME280;66014;53.134;18.006;2023-12-20T00:26:54;100177.81;;;6.62;96.42
77086;BME280;66014;53.134;18.006;2023-12-20T00:29:21;100179.40;;;6.62;96.36
77086;BME280;66014;53.134;18.006;2023-12-20T00:31:47;100174.40;;;6.63;96.40
77086;BME280;66014;53.134;18.006;2023-12-20T00:34:14;100168.02;;;6.61;96.31
77086;BME280;66014;53.134;18.006;2023-12-20T00:36:40;100162.80;;;6.60;96.35
77086;BME280;66014;53.134;18.006;2023-12-20T00:39:06;100160.22;;;6.60;96.25
77086;BME280;66014;53.134;18.006;2023-12-20T00:41:33;100157.81;;;6.59;96.43
77086;BME280;66014;53.134;18.006;2023-12-20T00:44:01;100161.65;;;6.60;96.47
77086;BME280;66014;53.134;18.006;2023-12-20T00:46:29;100164.62;;;6.60;96.48
77086;BME280;66014;53.134;18.006;2023-12-20T00:48:56;100172.10;;;6.60;96.49
77086;BME280;66014;53.134;18.006;2023-12-20T00:51:23;100166.31;;;6.59;96.53
77086;BME280;66014;53.134;18.006;2023-12-20T00:53:54;100165.74;;;6.59;96.48
77086;BME280;66014;53.134;18.006;2023-12-20T00:56:21;100161.71;;;6.59;96.54
77086;BME280;66014;53.134;18.006;2023-12-20T00:58:47;100160.85;;;6.59;96.53
77086;BME280;66014;53.134;18.006;2023-12-20T01:01:15;100159.98;;;6.59;96.48
77086;BME280;66014;53.134;18.006;2023-12-20T01:03:44;100160.02;;;6.58;96.47
77086;BME280;66014;53.134;18.006;2023-12-20T01:06:11;100157.41;;;6.60;96.49
77086;BME280;66014;53.134;18.006;2023-12-20T01:08:37;100155.23;;;6.60;96.47
77086;BME280;66014;53.134;18.006;2023-12-20T01:11:04;100149.38;;;6.59;96.50
77086;BME280;66014;53.134;18.006;2023-12-20T01:13:31;100148.67;;;6.59;96.46
77086;BME280;66014;53.134;18.006;2023-12-20T01:15:58;100144.16;;;6.58;96.55
77086;BME280;66014;53.134;18.006;2023-12-20T01:18:27;100140.45;;;6.59;96.59
77086;BME280;66014;53.134;18.006;2023-12-20T01:20:54;100141.71;;;6.58;96.53
77086;BME280;66014;53.134;18.006;2023-12-20T01:23:21;100139.55;;;6.59;96.53
77086;BME280;66014;53.134;18.006;2023-12-20T01:25:48;100136.77;;;6.58;96.67
77086;BME280;66014;53.134;18.006;2023-12-20T01:28:14;100137.06;;;6.59;96.60
77086;BME280;66014;53.134;18.006;2023-12-20T01:30:41;100135.23;;;6.59;96.69
77086;BME280;66014;53.134;18.006;2023-12-20T01:33:07;100134.64;;;6.60;96.64
77086;BME280;66014;53.134;18.006;2023-12-20T01:35:34;100130.01;;;6.60;96.59
77086;BME280;66014;53.134;18.006;2023-12-20T01:38:00;100126.84;;;6.61;96.61
77086;BME280;66014;53.134;18.006;2023-12-20T01:40:27;100123.43;;;6.61;96.58
77086;BME280;66014;53.134;18.006;2023-12-20T01:43:02;100117.95;;;6.61;96.56
77086;BME280;66014;53.134;18.006;2023-12-20T01:45:28;100116.80;;;6.62;96.51
77086;BME280;66014;53.134;18.006;2023-12-20T01:47:57;100112.89;;;6.63;96.60
77086;BME280;66014;53.134;18.006;2023-12-20T01:50:25;100115.05;;;6.64;96.60
77086;BME280;66014;53.134;18.006;2023-12-20T01:52:54;100113.62;;;6.64;96.57
77086;BME280;66014;53.134;18.006;2023-12-20T01:55:25;100110.45;;;6.64;96.56
77086;BME280;66014;53.134;18.006;2023-12-20T01:57:52;100104.16;;;6.65;96.58
77086;BME280;66014;53.134;18.006;2023-12-20T02:00:21;100103.75;;;6.67;96.60
77086;BME280;66014;53.134;18.006;2023-12-20T02:02:50;100106.52;;;6.67;96.47
77086;BME280;66014;53.134;18.006;2023-12-20T02:05:19;100107.66;;;6.70;96.50
77086;BME280;66014;53.134;18.006;2023-12-20T02:07:46;100107.97;;;6.70;96.41
77086;BME280;66014;53.134;18.006;2023-12-20T02:10:13;100111.89;;;6.71;96.47
77086;BME280;66014;53.134;18.006;2023-12-20T02:12:40;100109.23;;;6.72;96.44
77086;BME280;66014;53.134;18.006;2023-12-20T02:15:07;100107.61;;;6.72;96.52
77086;BME280;66014;53.134;18.006;2023-12-20T02:17:33;100104.44;;;6.72;96.33
77086;BME280;66014;53.134;18.006;2023-12-20T02:20:00;100099.80;;;6.72;96.49
77086;BME280;66014;53.134;18.006;2023-12-20T02:22:27;100096.70;;;6.72;96.57
77086;BME280;66014;53.134;18.006;2023-12-20T02:24:53;100093.52;;;6.72;96.45
77086;BME280;66014;53.134;18.006;2023-12-20T02:27:21;100093.09;;;6.71;96.49
77086;BME280;66014;53.134;18.006;2023-12-20T02:29:49;100090.24;;;6.71;96.54
77086;BME280;66014;53.134;18.006;2023-12-20T02:32:17;100088.70;;;6.72;96.56
77086;BME280;66014;53.134;18.006;2023-12-20T02:34:46;100090.88;;;6.73;96.49
77086;BME280;66014;53.134;18.006;2023-12-20T02:37:13;100085.14;;;6.73;96.58
77086;BME280;66014;53.134;18.006;2023-12-20T02:39:40;100086.87;;;6.71;96.62
77086;BME280;66014;53.134;18.006;2023-12-20T02:42:06;100079.73;;;6.70;96.56
77086;BME280;66014;53.134;18.006;2023-12-20T02:44:33;100079.84;;;6.69;96.71
77086;BME280;66014;53.134;18.006;2023-12-20T02:47:00;100078.98;;;6.68;96.72
77086;BME280;66014;53.134;18.006;2023-12-20T02:49:26;100075.67;;;6.67;96.90
77086;BME280;66014;53.134;18.006;2023-12-20T02:51:53;100073.89;;;6.67;96.94
77086;BME280;66014;53.134;18.006;2023-12-20T02:54:19;100076.27;;;6.68;97.00
77086;BME280;66014;53.134;18.006;2023-12-20T02:56:47;100078.02;;;6.68;96.85
77086;BME280;66014;53.134;18.006;2023-12-20T02:59:16;100078.35;;;6.69;96.95
77086;BME280;66014;53.134;18.006;2023-12-20T03:01:45;100083.22;;;6.68;96.96
77086;BME280;66014;53.134;18.006;2023-12-20T03:04:12;100077.20;;;6.69;96.87
77086;BME280;66014;53.134;18.006;2023-12-20T03:06:38;100074.51;;;6.71;96.76
77086;BME280;66014;53.134;18.006;2023-12-20T03:09:05;100071.90;;;6.73;96.71
77086;BME280;66014;53.134;18.006;2023-12-20T03:11:31;100068.58;;;6.75;96.71
77086;BME280;66014;53.134;18.006;2023-12-20T03:13:58;100070.44;;;6.78;96.51
77086;BME280;66014;53.134;18.006;2023-12-20T03:16:25;100065.21;;;6.79;96.35
77086;BME280;66014;53.134;18.006;2023-12-20T03:18:52;100067.56;;;6.80;96.23
77086;BME280;66014;53.134;18.006;2023-12-20T03:21:18;100065.88;;;6.81;96.16
77086;BME280;66014;53.134;18.006;2023-12-20T03:23:45;100068.45;;;6.81;96.05
77086;BME280;66014;53.134;18.006;2023-12-20T03:26:11;100072.02;;;6.83;96.05
77086;BME280;66014;53.134;18.006;2023-12-20T03:28:38;100071.73;;;6.82;95.84
77086;BME280;66014;53.134;18.006;2023-12-20T03:31:04;100068.05;;;6.82;95.86
77086;BME280;66014;53.134;18.006;2023-12-20T03:33:30;100068.95;;;6.82;95.81
77086;BME280;66014;53.134;18.006;2023-12-20T03:35:57;100066.59;;;6.81;95.64
77086;BME280;66014;53.134;18.006;2023-12-20T03:38:27;100061.61;;;6.80;95.61
77086;BME280;66014;53.134;18.006;2023-12-20T03:40:53;100058.64;;;6.78;95.64
77086;BME280;66014;53.134;18.006;2023-12-20T03:43:20;100061.86;;;6.77;95.74
77086;BME280;66014;53.134;18.006;2023-12-20T03:45:47;100060.59;;;6.76;95.77
77086;BME280;66014;53.134;18.006;2023-12-20T03:48:13;100061.09;;;6.75;95.72
77086;BME280;66014;53.134;18.006;2023-12-20T03:50:40;100061.59;;;6.73;95.73
77086;BME280;66014;53.134;18.006;2023-12-20T03:53:06;100067.06;;;6.73;95.72
77086;BME280;66014;53.134;18.006;2023-12-20T03:55:33;100063.08;;;6.73;95.69
77086;BME280;66014;53.134;18.006;2023-12-20T03:57:59;100066.08;;;6.73;95.71
77086;BME280;66014;53.134;18.006;2023-12-20T04:00:25;100063.05;;;6.73;95.91
77086;BME280;66014;53.134;18.006;2023-12-20T04:02:52;100060.86;;;6.74;95.82
77086;BME280;66014;53.134;18.006;2023-12-20T04:05:19;100063.63;;;6.74;95.76
77086;BME280;66014;53.134;18.006;2023-12-20T04:07:46;100058.05;;;6.73;95.74
77086;BME280;66014;53.134;18.006;2023-12-20T04:10:13;100061.42;;;6.73;95.64
77086;BME280;66014;53.134;18.006;2023-12-20T04:12:40;100061.36;;;6.72;95.72
77086;BME280;66014;53.134;18.006;2023-12-20T04:15:07;100063.16;;;6.72;95.65
77086;BME280;66014;53.134;18.006;2023-12-20T04:17:35;100064.11;;;6.71;95.59
77086;BME280;66014;53.134;18.006;2023-12-20T04:20:03;100060.82;;;6.71;95.59
77086;BME280;66014;53.134;18.006;2023-12-20T04:22:30;100061.29;;;6.70;95.49
77086;BME280;66014;53.134;18.006;2023-12-20T04:24:57;100060.23;;;6.70;95.52
77086;BME280;66014;53.134;18.006;2023-12-20T04:27:23;100060.44;;;6.70;95.41
77086;BME280;66014;53.134;18.006;2023-12-20T04:29:50;100056.13;;;6.70;95.38
77086;BME280;66014;53.134;18.006;2023-12-20T04:32:16;100056.62;;;6.70;95.31
77086;BME280;66014;53.134;18.006;2023-12-20T04:34:43;100055.70;;;6.69;95.27
77086;BME280;66014;53.134;18.006;2023-12-20T04:37:09;100057.33;;;6.69;95.25
77086;BME280;66014;53.134;18.006;2023-12-20T04:39:36;100055.87;;;6.69;95.25
77086;BME280;66014;53.134;18.006;2023-12-20T04:42:03;100063.17;;;6.69;95.22
77086;BME280;66014;53.134;18.006;2023-12-20T04:44:29;100060.14;;;6.68;95.05
77086;BME280;66014;53.134;18.006;2023-12-20T04:47:01;100060.30;;;6.66;94.92
77086;BME280;66014;53.134;18.006;2023-12-20T04:49:28;100061.79;;;6.65;94.93
77086;BME280;66014;53.134;18.006;2023-12-20T04:51:55;100065.27;;;6.64;94.67
77086;BME280;66014;53.134;18.006;2023-12-20T04:54:22;100071.88;;;6.63;94.71
77086;BME280;66014;53.134;18.006;2023-12-20T04:56:49;100072.52;;;6.62;94.76
77086;BME280;66014;53.134;18.006;2023-12-20T04:59:15;100070.30;;;6.62;94.71
77086;BME280;66014;53.134;18.006;2023-12-20T05:01:42;100069.49;;;6.59;94.66
77086;BME280;66014;53.134;18.006;2023-12-20T05:04:08;100073.33;;;6.57;94.32
77086;BME280;66014;53.134;18.006;2023-12-20T05:06:35;100074.62;;;6.54;94.51
77086;BME280;66014;53.134;18.006;2023-12-20T05:09:01;100079.84;;;6.54;94.56
77086;BME280;66014;53.134;18.006;2023-12-20T05:11:28;100078.14;;;6.51;94.37
77086;BME280;66014;53.134;18.006;2023-12-20T05:14:04;100076.52;;;6.50;94.46
77086;BME280;66014;53.134;18.006;2023-12-20T05:16:39;100067.71;;;6.48;94.30
77086;BME280;66014;53.134;18.006;2023-12-20T05:19:06;100070.23;;;6.48;94.34
77086;BME280;66014;53.134;18.006;2023-12-20T05:21:33;100065.36;;;6.47;94.34
77086;BME280;66014;53.134;18.006;2023-12-20T05:23:59;100067.55;;;6.47;94.33
77086;BME280;66014;53.134;18.006;2023-12-20T05:26:27;100066.22;;;6.46;94.32
77086;BME280;66014;53.134;18.006;2023-12-20T05:28:53;100064.59;;;6.45;94.32
77086;BME280;66014;53.134;18.006;2023-12-20T05:31:22;100061.79;;;6.41;94.31
77086;BME280;66014;53.134;18.006;2023-12-20T05:33:49;100061.34;;;6.39;94.33
77086;BME280;66014;53.134;18.006;2023-12-20T05:36:16;100063.45;;;6.37;94.53
77086;BME280;66014;53.134;18.006;2023-12-20T05:38:42;100069.52;;;6.37;94.63
77086;BME280;66014;53.134;18.006;2023-12-20T05:41:09;100066.70;;;6.37;94.68
77086;BME280;66014;53.134;18.006;2023-12-20T05:43:35;100064.63;;;6.36;94.76
77086;BME280;66014;53.134;18.006;2023-12-20T05:46:02;100067.93;;;6.35;94.68
77086;BME280;66014;53.134;18.006;2023-12-20T05:48:28;100073.48;;;6.34;94.70
77086;BME280;66014;53.134;18.006;2023-12-20T05:50:55;100067.23;;;6.33;94.81
77086;BME280;66014;53.134;18.006;2023-12-20T05:53:21;100070.23;;;6.32;94.70
77086;BME280;66014;53.134;18.006;2023-12-20T05:55:48;100067.10;;;6.28;94.68
77086;BME280;66014;53.134;18.006;2023-12-20T05:58:15;100069.48;;;6.24;94.73
77086;BME280;66014;53.134;18.006;2023-12-20T06:00:41;100065.48;;;6.20;94.79
77086;BME280;66014;53.134;18.006;2023-12-20T06:03:08;100067.45;;;6.17;94.87
77086;BME280;66014;53.134;18.006;2023-12-20T06:05:34;100067.91;;;6.14;94.82
77086;BME280;66014;53.134;18.006;2023-12-20T06:08:02;100063.98;;;6.12;95.08
77086;BME280;66014;53.134;18.006;2023-12-20T06:10:29;100059.61;;;6.08;94.92
77086;BME280;66014;53.134;18.006;2023-12-20T06:12:56;100060.31;;;6.05;94.88
77086;BME280;66014;53.134;18.006;2023-12-20T06:15:23;100064.23;;;6.03;94.92
77086;BME280;66014;53.134;18.006;2023-12-20T06:17:50;100064.52;;;5.99;94.71
77086;BME280;66014;53.134;18.006;2023-12-20T06:20:16;100068.42;;;5.95;94.65
77086;BME280;66014;53.134;18.006;2023-12-20T06:22:43;100069.52;;;5.91;94.61
77086;BME280;66014;53.134;18.006;2023-12-20T06:25:10;100067.72;;;5.87;94.44
77086;BME280;66014;53.134;18.006;2023-12-20T06:27:40;100074.35;;;5.84;94.29
77086;BME280;66014;53.134;18.006;2023-12-20T06:30:08;100072.42;;;5.82;94.31
77086;BME280;66014;53.134;18.006;2023-12-20T06:32:37;100076.52;;;5.82;94.27
77086;BME280;66014;53.134;18.006;2023-12-20T06:35:09;100079.05;;;5.81;94.37
77086;BME280;66014;53.134;18.006;2023-12-20T06:37:45;100082.81;;;5.79;94.39
77086;BME280;66014;53.134;18.006;2023-12-20T06:40:12;100077.20;;;5.77;94.50
77086;BME280;66014;53.134;18.006;2023-12-20T06:42:38;100079.61;;;5.74;94.68
77086;BME280;66014;53.134;18.006;2023-12-20T06:45:05;100083.05;;;5.73;94.76
77086;BME280;66014;53.134;18.006;2023-12-20T06:47:31;100080.48;;;5.71;94.75
77086;BME280;66014;53.134;18.006;2023-12-20T06:49:58;100074.66;;;5.68;94.79
77086;BME280;66014;53.134;18.006;2023-12-20T06:52:28;100071.99;;;5.68;94.91
77086;BME280;66014;53.134;18.006;2023-12-20T06:55:13;100063.08;;;5.69;95.07
77086;BME280;66014;53.134;18.006;2023-12-20T06:57:42;100067.02;;;5.72;95.19
77086;BME280;66014;53.134;18.006;2023-12-20T07:00:11;100066.30;;;5.73;95.10
77086;BME280;66014;53.134;18.006;2023-12-20T07:02:38;100071.91;;;5.74;95.03
77086;BME280;66014;53.134;18.006;2023-12-20T07:05:04;100075.61;;;5.74;94.99
77086;BME280;66014;53.134;18.006;2023-12-20T07:07:35;100075.23;;;5.72;94.85
77086;BME280;66014;53.134;18.006;2023-12-20T07:10:04;100074.48;;;5.71;94.85
77086;BME280;66014;53.134;18.006;2023-12-20T07:12:31;100080.53;;;5.70;94.80
77086;BME280;66014;53.134;18.006;2023-12-20T07:14:58;100080.37;;;5.68;94.74
77086;BME280;66014;53.134;18.006;2023-12-20T07:17:24;100082.11;;;5.67;94.74
77086;BME280;66014;53.134;18.006;2023-12-20T07:19:51;100081.17;;;5.64;94.70
77086;BME280;66014;53.134;18.006;2023-12-20T07:22:17;100088.66;;;5.60;94.54
77086;BME280;66014;53.134;18.006;2023-12-20T07:24:44;100092.28;;;5.57;94.58
77086;BME280;66014;53.134;18.006;2023-12-20T07:27:27;100094.48;;;5.53;94.47
77086;BME280;66014;53.134;18.006;2023-12-20T07:29:54;100093.69;;;5.49;94.37
77086;BME280;66014;53.134;18.006;2023-12-20T07:32:20;100093.56;;;5.45;94.30
77086;BME280;66014;53.134;18.006;2023-12-20T07:34:47;100094.44;;;5.42;94.25
77086;BME280;66014;53.134;18.006;2023-12-20T07:37:15;100093.19;;;5.39;94.21
77086;BME280;66014;53.134;18.006;2023-12-20T07:39:41;100095.71;;;5.37;94.16
77086;BME280;66014;53.134;18.006;2023-12-20T07:42:08;100101.73;;;5.35;94.02
77086;BME280;66014;53.134;18.006;2023-12-20T07:44:38;100098.88;;;5.37;94.16
77086;BME280;66014;53.134;18.006;2023-12-20T07:47:05;100092.19;;;5.38;93.91
77086;BME280;66014;53.134;18.006;2023-12-20T07:49:32;100094.20;;;5.38;93.69
77086;BME280;66014;53.134;18.006;2023-12-20T07:51:59;100096.36;;;5.37;93.47
77086;BME280;66014;53.134;18.006;2023-12-20T07:54:25;100099.46;;;5.36;93.35
77086;BME280;66014;53.134;18.006;2023-12-20T07:56:52;100085.70;;;5.35;93.36
77086;BME280;66014;53.134;18.006;2023-12-20T07:59:19;100092.38;;;5.35;93.10
77086;BME280;66014;53.134;18.006;2023-12-20T08:01:45;100099.98;;;5.33;92.64
77086;BME280;66014;53.134;18.006;2023-12-20T08:04:12;100100.27;;;5.32;92.55
77086;BME280;66014;53.134;18.006;2023-12-20T08:06:38;100099.55;;;5.32;92.61
77086;BME280;66014;53.134;18.006;2023-12-20T08:09:05;100100.92;;;5.32;92.79
77086;BME280;66014;53.134;18.006;2023-12-20T08:11:31;100095.46;;;5.34;92.62
77086;BME280;66014;53.134;18.006;2023-12-20T08:13:58;100091.94;;;5.35;92.59
77086;BME280;66014;53.134;18.006;2023-12-20T08:16:24;100089.35;;;5.38;92.60
77086;BME280;66014;53.134;18.006;2023-12-20T08:18:52;100086.52;;;5.42;92.79
77086;BME280;66014;53.134;18.006;2023-12-20T08:21:19;100084.70;;;5.44;92.89
77086;BME280;66014;53.134;18.006;2023-12-20T08:23:48;100087.77;;;5.45;92.83
77086;BME280;66014;53.134;18.006;2023-12-20T08:26:18;100084.83;;;5.43;92.64
77086;BME280;66014;53.134;18.006;2023-12-20T08:28:56;100082.20;;;5.45;92.67
77086;BME280;66014;53.134;18.006;2023-12-20T08:31:22;100082.65;;;5.50;92.63
77086;BME280;66014;53.134;18.006;2023-12-20T08:33:49;100086.95;;;5.60;92.47
77086;BME280;66014;53.134;18.006;2023-12-20T08:36:15;100083.71;;;5.65;92.18
77086;BME280;66014;53.134;18.006;2023-12-20T08:38:44;100088.48;;;5.67;91.91
77086;BME280;66014;53.134;18.006;2023-12-20T08:41:10;100086.97;;;5.66;91.80
77086;BME280;66014;53.134;18.006;2023-12-20T08:43:38;100090.13;;;5.65;91.59
77086;BME280;66014;53.134;18.006;2023-12-20T08:46:08;100086.35;;;5.60;91.69
77086;BME280;66014;53.134;18.006;2023-12-20T08:48:49;100084.34;;;5.58;91.70
77086;BME280;66014;53.134;18.006;2023-12-20T08:51:19;100082.52;;;5.55;91.64
77086;BME280;66014;53.134;18.006;2023-12-20T08:53:46;100084.05;;;5.52;91.56
77086;BME280;66014;53.134;18.006;2023-12-20T08:56:14;100081.23;;;5.49;91.61
77086;BME280;66014;53.134;18.006;2023-12-20T08:58:40;100079.80;;;5.46;91.33
77086;BME280;66014;53.134;18.006;2023-12-20T09:01:07;100071.27;;;5.43;91.53
77086;BME280;66014;53.134;18.006;2023-12-20T09:03:33;100077.84;;;5.39;91.56
77086;BME280;66014;53.134;18.006;2023-12-20T09:06:00;100073.38;;;5.36;91.58
77086;BME280;66014;53.134;18.006;2023-12-20T09:08:27;100070.61;;;5.39;91.71
77086;BME280;66014;53.134;18.006;2023-12-20T09:10:53;100065.65;;;5.50;91.42
77086;BME280;66014;53.134;18.006;2023-12-20T09:13:20;100066.55;;;5.60;91.52
77086;BME280;66014;53.134;18.006;2023-12-20T09:15:47;100063.59;;;5.64;90.60
77086;BME280;66014;53.134;18.006;2023-12-20T09:18:13;100058.74;;;5.67;90.02
77086;BME280;66014;53.134;18.006;2023-12-20T09:20:39;100059.29;;;5.72;90.39
77086;BME280;66014;53.134;18.006;2023-12-20T09:23:06;100058.86;;;5.70;90.00
77086;BME280;66014;53.134;18.006;2023-12-20T09:25:32;100054.69;;;5.73;89.84
77086;BME280;66014;53.134;18.006;2023-12-20T09:27:59;100052.89;;;5.82;89.42
77086;BME280;66014;53.134;18.006;2023-12-20T09:30:26;100051.96;;;5.96;88.98
77086;BME280;66014;53.134;18.006;2023-12-20T09:32:54;100052.91;;;6.11;88.53
77086;BME280;66014;53.134;18.006;2023-12-20T09:35:23;100053.41;;;6.13;88.31
77086;BME280;66014;53.134;18.006;2023-12-20T09:37:50;100050.66;;;6.09;88.57
77086;BME280;66014;53.134;18.006;2023-12-20T09:40:20;100053.44;;;6.06;88.18
77086;BME280;66014;53.134;18.006;2023-12-20T09:42:56;100059.25;;;6.05;87.75
77086;BME280;66014;53.134;18.006;2023-12-20T09:45:24;100057.36;;;6.03;87.08
77086;BME280;66014;53.134;18.006;2023-12-20T09:47:54;100056.70;;;5.99;87.13
77086;BME280;66014;53.134;18.006;2023-12-20T09:50:21;100047.16;;;6.06;87.36
77086;BME280;66014;53.134;18.006;2023-12-20T09:52:52;100030.23;;;6.14;87.37
77086;BME280;66014;53.134;18.006;2023-12-20T09:55:21;100029.48;;;6.15;87.01
77086;BME280;66014;53.134;18.006;2023-12-20T09:57:49;100020.28;;;6.13;86.59
77086;BME280;66014;53.134;18.006;2023-12-20T10:00:19;100010.95;;;6.21;86.35
77086;BME280;66014;53.134;18.006;2023-12-20T10:02:59;100004.30;;;6.34;85.70
77086;BME280;66014;53.134;18.006;2023-12-20T10:05:43;100000.30;;;6.46;84.82
77086;BME280;66014;53.134;18.006;2023-12-20T10:08:21;100000.92;;;6.55;84.17
77086;BME280;66014;53.134;18.006;2023-12-20T10:11:13;99997.74;;;6.77;83.88
77086;BME280;66014;53.134;18.006;2023-12-20T10:13:41;99996.48;;;7.00;82.67
77086;BME280;66014;53.134;18.006;2023-12-20T10:16:07;99998.70;;;7.21;81.04
77086;BME280;66014;53.134;18.006;2023-12-20T10:18:34;99993.90;;;7.34;81.70
77086;BME280;66014;53.134;18.006;2023-12-20T10:21:00;99989.31;;;7.35;82.85
77086;BME280;66014;53.134;18.006;2023-12-20T10:23:27;99981.27;;;7.27;81.21
77086;BME280;66014;53.134;18.006;2023-12-20T10:25:57;99975.79;;;7.15;82.20
77086;BME280;66014;53.134;18.006;2023-12-20T10:28:24;99972.10;;;7.05;83.40
77086;BME280;66014;53.134;18.006;2023-12-20T10:30:54;99971.74;;;6.96;83.70
77086;BME280;66014;53.134;18.006;2023-12-20T10:33:27;99967.17;;;6.87;83.06
77086;BME280;66014;53.134;18.006;2023-12-20T10:35:55;99958.15;;;6.79;83.47
77086;BME280;66014;53.134;18.006;2023-12-20T10:38:37;99955.49;;;6.73;83.03
77086;BME280;66014;53.134;18.006;2023-12-20T10:41:46;99951.43;;;6.64;82.98
77086;BME280;66014;53.134;18.006;2023-12-20T10:49:03;99942.59;;;6.55;83.87
77086;BME280;66014;53.134;18.006;2023-12-20T10:51:31;99939.06;;;6.53;83.88
77086;BME280;66014;53.134;18.006;2023-12-20T10:54:00;99939.21;;;6.50;83.93
77086;BME280;66014;53.134;18.006;2023-12-20T10:56:31;99944.05;;;6.46;84.02
77086;BME280;66014;53.134;18.006;2023-12-20T10:59:02;99936.96;;;6.39;83.59
77086;BME280;66014;53.134;18.006;2023-12-20T11:01:31;99930.27;;;6.34;83.97
77086;BME280;66014;53.134;18.006;2023-12-20T11:03:58;99928.52;;;6.29;83.64
77086;BME280;66014;53.134;18.006;2023-12-20T11:09:22;99917.96;;;6.21;83.65
77086;BME280;66014;53.134;18.006;2023-12-20T11:14:31;99900.36;;;6.15;84.03
77086;BME280;66014;53.134;18.006;2023-12-20T11:17:10;99896.89;;;6.12;84.67
77086;BME280;66014;53.134;18.006;2023-12-20T11:22:25;99883.32;;;6.13;85.17
77086;BME280;66014;53.134;18.006;2023-12-20T11:24:54;99874.41;;;6.12;84.73
77086;BME280;66014;53.134;18.006;2023-12-20T11:27:26;99873.55;;;6.10;85.02
77086;BME280;66014;53.134;18.006;2023-12-20T11:29:54;99866.63;;;6.09;84.97
77086;BME280;66014;53.134;18.006;2023-12-20T11:34:53;99856.75;;;6.11;84.43
77086;BME280;66014;53.134;18.006;2023-12-20T11:37:20;99854.13;;;6.14;84.58
77086;BME280;66014;53.134;18.006;2023-12-20T11:40:01;99850.16;;;6.15;84.37
77086;BME280;66014;53.134;18.006;2023-12-20T11:42:33;99844.61;;;6.15;84.93
77086;BME280;66014;53.134;18.006;2023-12-20T11:45:01;99835.20;;;6.13;85.12
77086;BME280;66014;53.134;18.006;2023-12-20T11:47:30;99830.69;;;6.11;85.29
77086;BME280;66014;53.134;18.006;2023-12-20T11:49:57;99830.49;;;6.08;85.42
77086;BME280;66014;53.134;18.006;2023-12-20T11:52:24;99831.02;;;6.05;85.70
77086;BME280;66014;53.134;18.006;2023-12-20T11:54:50;99829.45;;;6.03;85.88
77086;BME280;66014;53.134;18.006;2023-12-20T11:57:17;99823.17;;;6.02;86.08
77086;BME280;66014;53.134;18.006;2023-12-20T11:59:44;99821.73;;;6.00;86.33
77086;BME280;66014;53.134;18.006;2023-12-20T12:02:11;99813.41;;;5.97;87.19
77086;BME280;66014;53.134;18.006;2023-12-20T12:04:41;99810.34;;;5.94;86.83
77086;BME280;66014;53.134;18.006;2023-12-20T12:07:07;99803.13;;;5.91;86.86
77086;BME280;66014;53.134;18.006;2023-12-20T12:09:34;99796.14;;;5.86;86.64
77086;BME280;66014;53.134;18.006;2023-12-20T12:12:01;99795.20;;;5.83;87.33
77086;BME280;66014;53.134;18.006;2023-12-20T12:14:28;99793.58;;;5.82;87.40
77086;BME280;66014;53.134;18.006;2023-12-20T12:16:55;99789.56;;;5.80;87.59
77086;BME280;66014;53.134;18.006;2023-12-20T12:19:23;99781.59;;;5.77;87.95
77086;BME280;66014;53.134;18.006;2023-12-20T12:21:52;99783.88;;;5.76;87.94
77086;BME280;66014;53.134;18.006;2023-12-20T12:24:33;99779.25;;;5.73;88.03
77086;BME280;66014;53.134;18.006;2023-12-20T12:27:00;99772.10;;;5.69;88.39
77086;BME280;66014;53.134;18.006;2023-12-20T12:29:27;99770.45;;;5.67;88.51
77086;BME280;66014;53.134;18.006;2023-12-20T12:31:54;99764.77;;;5.65;88.72
77086;BME280;66014;53.134;18.006;2023-12-20T12:34:21;99766.89;;;5.65;88.58
77086;BME280;66014;53.134;18.006;2023-12-20T12:36:48;99760.42;;;5.63;88.64
77086;BME280;66014;53.134;18.006;2023-12-20T12:39:16;99756.66;;;5.62;89.17
77086;BME280;66014;53.134;18.006;2023-12-20T12:41:43;99757.03;;;5.61;88.72
77086;BME280;66014;53.134;18.006;2023-12-20T12:44:10;99749.52;;;5.57;88.60
77086;BME280;66014;53.134;18.006;2023-12-20T12:46:36;99748.83;;;5.55;88.87
77086;BME280;66014;53.134;18.006;2023-12-20T12:49:03;99743.92;;;5.54;89.21
77086;BME280;66014;53.134;18.006;2023-12-20T12:51:30;99739.29;;;5.53;89.28
77086;BME280;66014;53.134;18.006;2023-12-20T12:53:57;99738.56;;;5.51;89.55
77086;BME280;66014;53.134;18.006;2023-12-20T12:56:24;99732.96;;;5.49;89.83
77086;BME280;66014;53.134;18.006;2023-12-20T12:58:50;99728.31;;;5.48;89.87
77086;BME280;66014;53.134;18.006;2023-12-20T13:01:17;99728.31;;;5.50;90.05
77086;BME280;66014;53.134;18.006;2023-12-20T13:03:44;99733.78;;;5.50;90.01
77086;BME280;66014;53.134;18.006;2023-12-20T13:06:10;99733.10;;;5.50;89.84
77086;BME280;66014;53.134;18.006;2023-12-20T13:08:37;99732.50;;;5.49;89.86
77086;BME280;66014;53.134;18.006;2023-12-20T13:11:03;99730.92;;;5.47;89.81
77086;BME280;66014;53.134;18.006;2023-12-20T13:13:31;99728.65;;;5.45;89.57